Time;durP1;ratioP1;P1;durP2;ratioP2;P2;SDS_P1;SDS_P2;PMS_P1;PMS_P2;Temp;Humidity;BMP_temperature;BMP_pressure;BME280_temperature;BME280_humidity;BME280_pressure;Samples;Min_cycle;Max_cycle;Signal;HPM_P1;HPM_P2
2023/12/19 00:02:09;;;;;;;2.40;1.00;;;;;;;5.44;100.00;103108.94;104194;1266;72384;-56
2023/12/19 00:04:37;;;;;;;0.90;0.70;;;;;;;5.42;100.00;103102.65;104059;1274;59754;-56
2023/12/19 00:07:04;;;;;;;1.10;0.80;;;;;;;5.40;100.00;103100.63;104067;1266;60392;-56
2023/12/19 00:09:32;;;;;;;0.80;0.60;;;;;;;5.38;100.00;103096.83;104386;1265;71539;-57
2023/12/19 00:11:59;;;;;;;0.80;0.70;;;;;;;5.36;100.00;103087.17;108322;1261;66918;-55
2023/12/19 00:14:26;;;;;;;0.60;0.50;;;;;;;5.35;100.00;103081.82;105386;1266;72881;-53
2023/12/19 00:16:54;;;;;;;0.60;0.50;;;;;;;5.35;100.00;103086.45;104360;1265;63992;-54
2023/12/19 00:19:21;;;;;;;0.80;0.50;;;;;;;5.36;100.00;103085.75;104301;1261;60083;-56
2023/12/19 00:21:48;;;;;;;0.70;0.50;;;;;;;5.38;100.00;103085.60;104201;1266;73117;-55
2023/12/19 00:24:16;;;;;;;1.00;0.60;;;;;;;5.38;100.00;103094.89;105675;1267;66346;-55
2023/12/19 00:26:43;;;;;;;0.60;0.60;;;;;;;5.39;100.00;103097.75;104107;1268;71488;-57
2023/12/19 00:29:11;;;;;;;0.80;0.70;;;;;;;5.39;100.00;103094.38;104088;1263;59683;-53
2023/12/19 00:31:38;;;;;;;1.60;0.60;;;;;;;5.39;100.00;103089.37;104209;1262;59967;-56
2023/12/19 00:34:05;;;;;;;0.60;0.50;;;;;;;5.38;100.00;103088.09;104480;1262;73502;-56
2023/12/19 00:36:33;;;;;;;0.70;0.50;;;;;;;5.35;100.00;103083.59;104271;1267;66414;-57
2023/12/19 00:39:04;;;;;;;0.60;0.60;;;;;;;5.34;100.00;103078.23;104321;1262;73642;-57
2023/12/19 00:41:31;;;;;;;0.50;0.30;;;;;;;5.35;100.00;103079.67;104232;1266;61745;-57
2023/12/19 00:44:00;;;;;;;0.60;0.50;;;;;;;5.36;100.00;103079.86;104373;1266;60079;-53
2023/12/19 00:46:27;;;;;;;1.30;0.50;;;;;;;5.36;100.00;103081.64;103944;1264;73263;-56
2023/12/19 00:48:55;;;;;;;0.40;0.40;;;;;;;5.38;100.00;103078.30;104298;1265;66941;-55
2023/12/19 00:51:22;;;;;;;1.30;0.60;;;;;;;5.38;100.00;103078.14;104323;1265;72490;-56
2023/12/19 00:53:50;;;;;;;0.70;0.50;;;;;;;5.38;100.00;103074.04;106819;1267;60071;-56
2023/12/19 00:56:17;;;;;;;0.60;0.50;;;;;;;5.37;100.00;103069.54;104376;1267;60098;-55
2023/12/19 00:58:44;;;;;;;0.70;0.40;;;;;;;5.35;100.00;103065.98;104134;1261;70785;-55
2023/12/19 01:01:11;;;;;;;0.60;0.50;;;;;;;5.33;100.00;103063.25;103992;1264;67158;-56
2023/12/19 01:03:39;;;;;;;0.80;0.50;;;;;;;5.32;100.00;103057.16;104192;1270;71784;-56
2023/12/19 01:06:07;;;;;;;0.40;0.40;;;;;;;5.32;100.00;103051.45;104977;1265;60782;-55
2023/12/19 01:08:34;;;;;;;0.50;0.40;;;;;;;5.33;100.00;103053.98;104200;1261;59531;-54
2023/12/19 01:11:01;;;;;;;0.60;0.40;;;;;;;5.34;100.00;103048.85;104181;1268;73165;-54
2023/12/19 01:13:28;;;;;;;0.50;0.40;;;;;;;5.37;100.00;103052.11;104185;1261;66366;-52
2023/12/19 01:15:56;;;;;;;0.40;0.40;;;;;;;5.39;100.00;103050.92;104267;1265;72736;-54
2023/12/19 01:18:23;;;;;;;0.70;0.30;;;;;;;5.41;100.00;103049.89;103985;1260;59783;-57
2023/12/19 01:20:51;;;;;;;0.40;0.40;;;;;;;5.42;100.00;103044.59;104408;1266;60014;-55
2023/12/19 01:23:18;;;;;;;0.50;0.50;;;;;;;5.42;100.00;103046.55;104151;1261;73316;-56
2023/12/19 01:25:45;;;;;;;0.80;0.30;;;;;;;5.41;100.00;103046.69;104158;1267;67055;-54
2023/12/19 01:28:12;;;;;;;0.30;0.30;;;;;;;5.40;100.00;103046.49;104274;1261;73200;-55
2023/12/19 01:30:40;;;;;;;0.40;0.30;;;;;;;5.39;100.00;103043.09;108454;1260;59771;-57
2023/12/19 01:33:08;;;;;;;0.60;0.40;;;;;;;5.40;100.00;103038.82;108437;1260;58878;-57
2023/12/19 01:35:36;;;;;;;0.30;0.30;;;;;;;5.40;100.00;103039.17;108414;1261;72157;-57
2023/12/19 01:38:03;;;;;;;0.50;0.30;;;;;;;5.41;100.00;103031.19;108439;1260;66937;-57
2023/12/19 01:40:31;;;;;;;0.30;0.30;;;;;;;5.43;100.00;103033.22;108453;1262;71365;-57
2023/12/19 01:42:59;;;;;;;0.30;0.20;;;;;;;5.44;100.00;103031.11;108475;1264;60294;-57
2023/12/19 01:45:28;;;;;;;0.40;0.30;;;;;;;5.44;100.00;103033.24;108435;1260;59388;-57
2023/12/19 01:47:55;;;;;;;0.30;0.30;;;;;;;5.44;100.00;103036.27;108398;1260;74183;-57
2023/12/19 01:50:23;;;;;;;0.40;0.40;;;;;;;5.45;100.00;103037.34;108454;1264;65561;-57
2023/12/19 01:52:54;;;;;;;0.70;0.20;;;;;;;5.44;100.00;103032.36;108560;1261;72714;-57
2023/12/19 01:55:26;;;;;;;0.30;0.30;;;;;;;5.43;100.00;103034.84;106662;1264;61641;-56
2023/12/19 01:57:54;;;;;;;0.30;0.30;;;;;;;5.43;100.00;103039.29;104175;1266;60122;-57
2023/12/19 02:00:22;;;;;;;0.20;0.20;;;;;;;5.43;100.00;103029.84;103981;1266;72829;-54
2023/12/19 02:02:50;;;;;;;0.20;0.20;;;;;;;5.44;100.00;103030.22;104757;1261;65634;-56
2023/12/19 02:05:18;;;;;;;0.30;0.30;;;;;;;5.44;100.00;103026.66;104128;1261;72871;-58
2023/12/19 02:07:47;;;;;;;0.30;0.30;;;;;;;5.45;100.00;103030.39;104220;1260;59608;-57
2023/12/19 02:10:15;;;;;;;0.40;0.30;;;;;;;5.45;100.00;103028.08;104012;1261;60484;-54
2023/12/19 02:12:43;;;;;;;0.40;0.40;;;;;;;5.45;100.00;103022.38;105861;1266;72080;-56
2023/12/19 02:15:10;;;;;;;0.50;0.30;;;;;;;5.44;100.00;103018.81;104234;1260;66892;-55
2023/12/19 02:17:39;;;;;;;0.60;0.30;;;;;;;5.43;100.00;103013.63;104145;1266;73205;-56
2023/12/19 02:20:07;;;;;;;0.20;0.20;;;;;;;5.41;100.00;103010.18;104217;1265;61704;-56
2023/12/19 02:22:34;;;;;;;1.50;0.30;;;;;;;5.39;100.00;103005.86;105874;1266;59688;-55
2023/12/19 02:25:02;;;;;;;0.40;0.30;;;;;;;5.39;100.00;103003.53;104044;1267;73510;-57
2023/12/19 02:27:29;;;;;;;0.50;0.40;;;;;;;5.39;100.00;102999.98;104494;1264;66819;-56
2023/12/19 02:29:57;;;;;;;0.30;0.20;;;;;;;5.40;100.00;102995.90;107967;1264;72268;-57
2023/12/19 02:32:24;;;;;;;0.30;0.30;;;;;;;5.41;100.00;102990.06;104387;1259;61519;-55
2023/12/19 02:34:52;;;;;;;0.30;0.30;;;;;;;5.42;100.00;102982.42;107810;1260;58798;-58
2023/12/19 02:37:19;;;;;;;0.30;0.30;;;;;;;5.42;100.00;102984.02;104495;1263;73636;-56
2023/12/19 02:39:47;;;;;;;0.30;0.30;;;;;;;5.41;100.00;102994.16;104496;1263;66145;-55
2023/12/19 02:42:14;;;;;;;0.50;0.40;;;;;;;5.41;100.00;103000.58;104540;1263;71743;-57
2023/12/19 02:44:42;;;;;;;0.40;0.40;;;;;;;5.40;100.00;102999.64;104600;1262;62368;-57
2023/12/19 02:47:09;;;;;;;0.30;0.30;;;;;;;5.39;100.00;103001.58;104487;1257;62082;-54
2023/12/19 02:49:36;;;;;;;0.40;0.40;;;;;;;5.38;100.00;102999.41;104517;1257;74462;-56
2023/12/19 02:52:04;;;;;;;0.30;0.30;;;;;;;5.37;100.00;102998.69;104581;1261;64982;-57
2023/12/19 02:54:31;;;;;;;0.50;0.50;;;;;;;5.37;100.00;102994.57;104701;1263;71730;-56
2023/12/19 02:56:59;;;;;;;0.40;0.40;;;;;;;5.38;100.00;102993.16;104682;1257;61815;-54
2023/12/19 02:59:26;;;;;;;0.60;0.40;;;;;;;5.39;100.00;102992.48;104477;1258;59744;-58
2023/12/19 03:01:53;;;;;;;0.90;0.30;;;;;;;5.40;100.00;102999.47;104487;1258;71983;-54
2023/12/19 03:04:20;;;;;;;0.30;0.30;;;;;;;5.41;100.00;102998.27;104521;1258;65124;-56
2023/12/19 03:06:48;;;;;;;0.60;0.50;;;;;;;5.41;100.00;102995.57;104888;1257;72719;-58
2023/12/19 03:09:15;;;;;;;0.50;0.40;;;;;;;5.39;100.00;102985.73;104349;1264;60433;-57
2023/12/19 03:12:03;;;;;;;0.60;0.30;;;;;;;5.37;100.00;102988.16;104616;1264;60620;-58
2023/12/19 03:14:31;;;;;;;0.40;0.40;;;;;;;5.35;100.00;103022.52;107336;1260;73987;-58
2023/12/19 03:16:58;;;;;;;0.40;0.40;;;;;;;5.33;100.00;103000.03;105369;1257;65715;-57
2023/12/19 03:19:26;;;;;;;0.30;0.30;;;;;;;5.34;100.00;102994.71;104352;1261;71413;-57
2023/12/19 03:21:54;;;;;;;1.70;0.30;;;;;;;5.36;100.00;102995.81;104492;1260;60786;-57
2023/12/19 03:24:22;;;;;;;0.40;0.30;;;;;;;5.36;100.00;102996.52;107326;1257;60172;-59
2023/12/19 03:26:49;;;;;;;0.40;0.40;;;;;;;5.36;100.00;102988.15;104501;1258;73815;-55
2023/12/19 03:29:17;;;;;;;0.50;0.50;;;;;;;5.37;100.00;102991.55;104417;1257;67432;-58
2023/12/19 03:31:44;;;;;;;0.60;0.40;;;;;;;5.36;100.00;102992.96;104502;1259;71930;-55
2023/12/19 03:34:11;;;;;;;0.40;0.40;;;;;;;5.35;100.00;102994.72;104576;1257;61246;-57
2023/12/19 03:36:39;;;;;;;0.50;0.40;;;;;;;5.33;100.00;102993.45;104570;1263;62314;-55
2023/12/19 03:39:06;;;;;;;0.30;0.30;;;;;;;5.32;100.00;102986.30;107612;1262;74322;-58
2023/12/19 03:41:34;;;;;;;0.40;0.30;;;;;;;5.32;100.00;102980.76;104316;1262;65706;-58
2023/12/19 03:44:01;;;;;;;0.40;0.40;;;;;;;5.31;100.00;102974.85;104288;1257;71511;-56
2023/12/19 03:46:28;;;;;;;1.50;0.30;;;;;;;5.30;100.00;102969.51;104531;1257;61763;-57
2023/12/19 03:48:55;;;;;;;0.70;0.30;;;;;;;5.31;100.00;102959.54;104219;1258;60072;-55
2023/12/19 03:51:23;;;;;;;0.40;0.40;;;;;;;5.32;100.00;102955.67;107749;1257;74231;-59
2023/12/19 03:53:50;;;;;;;0.40;0.40;;;;;;;5.34;100.00;102960.88;104171;1264;64664;-56
2023/12/19 03:56:17;;;;;;;0.50;0.40;;;;;;;5.35;100.00;102959.83;104398;1261;72892;-60
2023/12/19 03:58:45;;;;;;;0.70;0.60;;;;;;;5.35;100.00;102969.63;104427;1264;60558;-59
2023/12/19 04:01:12;;;;;;;2.80;1.30;;;;;;;5.33;100.00;102980.97;104413;1261;60461;-58
2023/12/19 04:03:40;;;;;;;0.60;0.60;;;;;;;5.32;100.00;102984.88;104194;1257;73985;-59
2023/12/19 04:06:08;;;;;;;0.60;0.50;;;;;;;5.32;100.00;102976.67;104426;1263;64681;-58
2023/12/19 04:08:35;;;;;;;0.40;0.40;;;;;;;5.30;100.00;102974.14;104405;1257;73609;-58
2023/12/19 04:11:03;;;;;;;0.50;0.40;;;;;;;5.30;100.00;102966.30;104519;1262;60412;-59
2023/12/19 04:13:31;;;;;;;0.60;0.50;;;;;;;5.32;100.00;102965.62;104467;1257;61269;-59
2023/12/19 04:15:58;;;;;;;0.90;0.40;;;;;;;5.33;100.00;102968.70;104607;1260;73818;-59
2023/12/19 04:18:25;;;;;;;0.50;0.40;;;;;;;5.35;100.00;102966.40;104459;1263;65437;-58
2023/12/19 04:20:53;;;;;;;0.50;0.50;;;;;;;5.35;100.00;102967.66;107256;1257;72749;-59
2023/12/19 04:23:20;;;;;;;0.50;0.50;;;;;;;5.35;100.00;102968.20;104439;1262;60196;-59
2023/12/19 04:25:47;;;;;;;0.50;0.50;;;;;;;5.35;100.00;102971.77;104380;1262;60428;-59
2023/12/19 04:28:15;;;;;;;0.50;0.50;;;;;;;5.33;100.00;102968.52;104507;1256;72502;-59
2023/12/19 04:30:42;;;;;;;2.00;0.60;;;;;;;5.31;100.00;102957.05;104234;1261;67451;-58
2023/12/19 04:33:10;;;;;;;0.70;0.60;;;;;;;5.30;100.00;102956.85;104603;1264;70466;-57
2023/12/19 04:35:37;;;;;;;0.40;0.40;;;;;;;5.28;100.00;102951.27;104381;1257;60267;-58
2023/12/19 04:38:05;;;;;;;0.50;0.50;;;;;;;5.29;100.00;102952.00;104480;1262;60455;-58
2023/12/19 04:40:32;;;;;;;0.40;0.40;;;;;;;5.28;100.00;102948.77;104830;1262;74285;-58
2023/12/19 04:43:00;;;;;;;0.70;0.60;;;;;;;5.29;100.00;102945.24;107653;1257;65638;-59
2023/12/19 04:45:27;;;;;;;0.60;0.60;;;;;;;5.30;100.00;102948.31;105090;1257;71262;-58
2023/12/19 04:47:54;;;;;;;0.80;0.60;;;;;;;5.32;100.00;102942.67;104394;1259;60637;-56
2023/12/19 04:50:22;;;;;;;0.60;0.60;;;;;;;5.33;100.00;102945.17;108622;1257;59172;-59
2023/12/19 04:52:51;;;;;;;2.70;0.70;;;;;;;5.32;100.00;102943.89;106987;1262;74354;-56
2023/12/19 04:55:18;;;;;;;0.60;0.60;;;;;;;5.31;100.00;102933.18;104341;1262;66938;-58
2023/12/19 04:57:45;;;;;;;0.80;0.80;;;;;;;5.31;100.00;102929.63;104564;1264;71437;-58
2023/12/19 05:00:13;;;;;;;0.60;0.60;;;;;;;5.31;100.00;102923.94;104341;1258;61485;-58
2023/12/19 05:02:41;;;;;;;1.90;0.80;;;;;;;5.30;100.00;102917.84;106863;1257;59422;-59
2023/12/19 05:05:09;;;;;;;0.60;0.60;;;;;;;5.30;100.00;102918.04;108426;1257;72962;-59
2023/12/19 05:07:36;;;;;;;0.80;0.80;;;;;;;5.31;100.00;102920.72;108568;1258;67704;-58
2023/12/19 05:10:04;;;;;;;1.00;0.80;;;;;;;5.32;100.00;102917.36;104552;1257;72917;-58
2023/12/19 05:12:33;;;;;;;2.70;1.00;;;;;;;5.32;100.00;102917.91;104388;1259;61353;-58
2023/12/19 05:15:01;;;;;;;1.90;1.00;;;;;;;5.32;100.00;102913.27;104399;1258;60687;-56
2023/12/19 05:17:28;;;;;;;2.20;1.10;;;;;;;5.31;100.00;102902.20;104382;1262;74897;-56
2023/12/19 05:19:56;;;;;;;1.10;0.90;;;;;;;5.30;100.00;102904.48;104325;1262;69448;-57
2023/12/19 05:22:25;;;;;;;1.40;0.90;;;;;;;5.29;100.00;102907.33;104328;1259;72696;-55
2023/12/19 05:24:52;;;;;;;2.30;0.90;;;;;;;5.30;100.00;102905.02;104320;1257;60811;-58
2023/12/19 05:27:20;;;;;;;1.20;1.00;;;;;;;5.29;100.00;102899.13;104619;1257;60300;-58
2023/12/19 05:29:47;;;;;;;1.10;1.00;;;;;;;5.30;100.00;102890.41;104436;1264;72695;-57
2023/12/19 05:32:14;;;;;;;1.10;1.00;;;;;;;5.31;100.00;102885.29;104448;1260;69224;-59
2023/12/19 05:34:42;;;;;;;1.20;1.00;;;;;;;5.33;100.00;102890.50;104375;1257;71476;-59
2023/12/19 05:37:09;;;;;;;2.80;1.10;;;;;;;5.31;100.00;102889.92;104271;1257;60973;-60
2023/12/19 05:39:37;;;;;;;1.60;1.30;;;;;;;5.31;100.00;102887.97;104534;1258;60621;-56
2023/12/19 05:42:04;;;;;;;2.10;1.30;;;;;;;5.30;100.00;102885.98;104186;1260;72992;-58
2023/12/19 05:44:31;;;;;;;1.40;1.20;;;;;;;5.29;100.00;102884.52;104546;1262;67421;-57
2023/12/19 05:46:58;;;;;;;2.40;1.50;;;;;;;5.28;100.00;102876.83;104458;1257;72282;-58
2023/12/19 05:49:26;;;;;;;3.10;1.00;;;;;;;5.27;100.00;102878.61;104456;1257;62488;-56
2023/12/19 05:51:54;;;;;;;2.30;1.80;;;;;;;5.26;100.00;102879.85;105102;1258;60530;-56
2023/12/19 05:54:22;;;;;;;1.80;1.20;;;;;;;5.25;100.00;102887.49;104364;1262;74390;-56
2023/12/19 05:56:50;;;;;;;1.30;1.20;;;;;;;5.25;100.00;102887.67;105481;1258;67508;-57
2023/12/19 05:59:18;;;;;;;1.40;1.30;;;;;;;5.25;100.00;102885.16;106160;1262;71501;-56
2023/12/19 06:01:45;;;;;;;1.90;1.80;;;;;;;5.25;100.00;102887.46;104370;1256;60672;-56
2023/12/19 06:04:12;;;;;;;4.00;2.00;;;;;;;5.24;100.00;102890.31;105918;1258;62114;-56
2023/12/19 06:06:44;;;;;;;3.70;1.50;;;;;;;5.24;100.00;102886.56;104181;1262;73503;-56
2023/12/19 06:09:11;;;;;;;1.60;1.50;;;;;;;5.24;100.00;102888.52;104842;1257;67638;-56
2023/12/19 06:11:39;;;;;;;1.90;1.70;;;;;;;5.23;100.00;102877.45;104492;1262;72665;-56
2023/12/19 06:14:07;;;;;;;1.80;1.50;;;;;;;5.22;100.00;102876.01;104426;1258;60972;-57
2023/12/19 06:16:34;;;;;;;3.60;2.40;;;;;;;5.22;100.00;102872.45;104592;1257;60986;-56
2023/12/19 06:19:02;;;;;;;2.40;2.20;;;;;;;5.24;100.00;102870.70;104435;1262;72627;-56
2023/12/19 06:21:30;;;;;;;2.00;1.90;;;;;;;5.24;100.00;102874.27;104484;1257;67005;-57
2023/12/19 06:23:58;;;;;;;2.70;2.50;;;;;;;5.24;100.00;102879.96;104416;1262;71331;-55
2023/12/19 06:26:25;;;;;;;4.40;4.00;;;;;;;5.24;100.00;102881.92;104701;1261;60537;-56
2023/12/19 06:28:52;;;;;;;2.70;2.50;;;;;;;5.22;100.00;102873.16;104597;1259;60831;-56
2023/12/19 06:31:22;;;;;;;3.20;3.00;;;;;;;5.21;100.00;102877.21;104893;1260;71986;-57
2023/12/19 06:33:49;;;;;;;3.70;2.50;;;;;;;5.19;100.00;102873.96;105590;1257;66119;-57
2023/12/19 06:36:31;;;;;;;3.20;2.70;;;;;;;5.16;100.00;102864.48;104269;1258;72730;-57
2023/12/19 06:38:59;;;;;;;3.00;2.80;;;;;;;5.15;100.00;102878.86;105448;1262;62280;-59
2023/12/19 06:41:26;;;;;;;3.40;3.20;;;;;;;5.15;100.00;102863.55;104264;1259;60524;-59
2023/12/19 06:43:53;;;;;;;3.50;3.30;;;;;;;5.17;100.00;102861.29;104196;1257;72649;-58
2023/12/19 06:46:20;;;;;;;4.40;4.00;;;;;;;5.20;100.00;102865.08;104370;1257;64907;-59
2023/12/19 06:48:48;;;;;;;4.00;3.60;;;;;;;5.22;100.00;102871.36;105017;1257;72695;-59
2023/12/19 06:51:25;;;;;;;6.50;5.30;;;;;;;5.21;100.00;102866.71;108050;1259;59702;-58
2023/12/19 06:53:54;;;;;;;4.40;3.70;;;;;;;5.20;100.00;102866.87;105544;1259;60503;-58
2023/12/19 06:56:26;;;;;;;5.30;4.70;;;;;;;5.19;100.00;102847.98;106492;1258;73901;-55
2023/12/19 06:58:55;;;;;;;5.60;3.80;;;;;;;5.18;100.00;102849.05;105698;1257;65870;-58
2023/12/19 07:01:23;;;;;;;3.90;3.50;;;;;;;5.19;100.00;102842.46;108535;1256;71874;-57
2023/12/19 07:03:50;;;;;;;5.50;4.30;;;;;;;5.20;100.00;102839.09;108528;1258;60447;-57
2023/12/19 07:06:18;;;;;;;3.90;3.10;;;;;;;5.22;100.00;102837.55;108679;1256;60789;-57
2023/12/19 07:08:45;;;;;;;4.60;3.70;;;;;;;5.25;100.00;102833.52;108632;1256;71680;-57
2023/12/19 07:11:15;;;;;;;5.70;2.90;;;;;;;5.27;100.00;102846.73;108834;1256;65203;-58
2023/12/19 07:13:43;;;;;;;6.90;4.10;;;;;;;5.28;100.00;102852.29;108678;1257;71482;-58
2023/12/19 07:16:15;;;;;;;4.30;4.00;;;;;;;5.30;100.00;102854.83;108688;1256;60192;-58
2023/12/19 07:18:43;;;;;;;4.20;3.80;;;;;;;5.32;100.00;102851.31;108568;1256;59632;-58
2023/12/19 07:21:18;;;;;;;4.00;3.10;;;;;;;5.34;100.00;102851.70;108705;1259;74015;-61
2023/12/19 07:23:45;;;;;;;7.40;5.80;;;;;;;5.36;100.00;102869.19;108613;1256;66752;-61
2023/12/19 07:26:19;;;;;;;6.20;5.60;;;;;;;5.39;100.00;102863.90;108554;1256;73677;-61
2023/12/19 07:28:47;;;;;;;;;;;;;;;5.43;100.00;102876.31;108713;1256;62191;-61
2023/12/19 07:31:21;;;;;;;5.60;4.90;;;;;;;5.45;100.00;102870.10;108660;1257;58525;-60
2023/12/19 07:33:55;;;;;;;6.50;5.50;;;;;;;5.46;100.00;102880.83;108637;1256;73969;-60
2023/12/19 07:36:26;;;;;;;6.30;5.50;;;;;;;5.48;100.00;102878.20;108726;1256;67369;-58
2023/12/19 07:38:54;;;;;;;5.50;5.00;;;;;;;5.48;100.00;102872.31;108675;1257;73604;-58
2023/12/19 07:41:23;;;;;;;7.10;4.70;;;;;;;5.48;100.00;102869.81;108708;1257;60553;-58
2023/12/19 07:43:50;;;;;;;4.80;4.40;;;;;;;5.47;100.00;102879.05;108700;1256;60981;-58
2023/12/19 07:46:19;;;;;;;5.40;4.40;;;;;;;5.47;100.00;102880.66;108415;1256;73951;-58
2023/12/19 07:48:46;;;;;;;4.60;4.10;;;;;;;5.47;100.00;102881.18;105891;1256;67709;-58
2023/12/19 07:51:21;;;;;;;5.30;4.40;;;;;;;5.45;100.00;102868.48;108685;1256;72831;-60
2023/12/19 07:53:49;;;;;;;5.30;4.50;;;;;;;5.45;100.00;102871.34;106854;1256;61524;-60
2023/12/19 07:56:16;;;;;;;6.00;4.90;;;;;;;5.48;100.00;102862.50;104258;1262;60947;-59
2023/12/19 07:58:43;;;;;;;7.60;6.80;;;;;;;5.51;100.00;102851.38;104295;1256;72796;-57
2023/12/19 08:01:12;;;;;;;6.60;6.00;;;;;;;5.53;100.00;102848.74;104270;1256;66059;-59
2023/12/19 08:03:41;;;;;;;8.00;7.00;;;;;;;5.56;100.00;102848.99;104495;1262;71510;-58
2023/12/19 08:06:10;;;;;;;6.00;5.50;;;;;;;5.59;100.00;102841.73;107331;1256;60043;-57
2023/12/19 08:08:37;;;;;;;6.20;5.60;;;;;;;5.59;100.00;102834.80;104482;1256;60444;-59
2023/12/19 08:11:05;;;;;;;5.30;4.70;;;;;;;5.60;100.00;102836.95;106090;1258;72995;-58
2023/12/19 08:13:34;;;;;;;4.70;4.40;;;;;;;5.60;100.00;102841.42;106397;1257;67492;-59
2023/12/19 08:16:02;;;;;;;3.80;3.40;;;;;;;5.61;100.00;102834.11;104405;1259;71468;-59
2023/12/19 08:18:29;;;;;;;3.20;3.00;;;;;;;5.62;100.00;102828.61;104530;1256;61946;-59
2023/12/19 08:20:57;;;;;;;3.80;3.50;;;;;;;5.64;100.00;102827.59;104393;1262;60461;-59
2023/12/19 08:23:24;;;;;;;4.10;3.70;;;;;;;5.67;100.00;102827.13;104211;1256;73952;-59
2023/12/19 08:25:51;;;;;;;3.90;3.50;;;;;;;5.69;100.00;102829.14;104421;1256;66837;-59
2023/12/19 08:28:19;;;;;;;6.10;4.90;;;;;;;5.69;100.00;102825.58;104176;1256;75312;-60
2023/12/19 08:30:46;;;;;;;3.90;3.60;;;;;;;5.68;100.00;102828.22;104264;1257;61758;-59
2023/12/19 08:33:14;;;;;;;5.80;4.90;;;;;;;5.67;100.00;102826.60;106468;1256;60458;-59
2023/12/19 08:35:41;;;;;;;5.10;4.60;;;;;;;5.66;100.00;102822.45;104615;1258;74834;-59
2023/12/19 08:38:08;;;;;;;4.20;3.90;;;;;;;5.64;100.00;102822.60;104343;1257;65802;-59
2023/12/19 08:40:36;;;;;;;5.30;4.80;;;;;;;5.65;100.00;102819.23;104465;1260;71428;-59
2023/12/19 08:43:03;;;;;;;4.90;4.30;;;;;;;5.66;100.00;102819.81;104330;1262;60665;-59
2023/12/19 08:45:30;;;;;;;5.50;5.00;;;;;;;5.69;100.00;102820.03;104419;1256;60332;-59
2023/12/19 08:47:58;;;;;;;4.90;4.40;;;;;;;5.71;100.00;102817.92;104243;1262;73766;-59
2023/12/19 08:50:25;;;;;;;5.90;5.00;;;;;;;5.74;100.00;102823.14;104343;1262;65832;-59
2023/12/19 08:52:53;;;;;;;6.00;5.40;;;;;;;5.73;100.00;102820.48;104381;1259;74699;-59
2023/12/19 08:55:20;;;;;;;7.50;5.00;;;;;;;5.73;100.00;102801.56;104264;1259;61680;-60
2023/12/19 08:57:48;;;;;;;6.60;6.00;;;;;;;5.71;100.00;102789.25;104500;1259;60178;-60
2023/12/19 09:00:17;;;;;;;7.40;5.80;;;;;;;5.70;100.00;102786.91;104215;1262;74020;-60
2023/12/19 09:02:45;;;;;;;7.60;5.30;;;;;;;5.71;100.00;102789.77;106358;1262;67558;-60
2023/12/19 09:05:13;;;;;;;6.30;5.50;;;;;;;5.73;100.00;102793.01;108545;1257;73195;-60
2023/12/19 09:07:42;;;;;;;5.50;5.00;;;;;;;5.74;100.00;102793.23;108654;1257;59008;-59
2023/12/19 09:10:12;;;;;;;6.60;5.70;;;;;;;5.75;100.00;102795.39;105945;1260;61646;-58
2023/12/19 09:12:40;;;;;;;6.80;6.10;;;;;;;5.78;100.00;102805.42;108721;1256;73888;-59
2023/12/19 09:15:08;;;;;;;6.10;5.20;;;;;;;5.79;100.00;102807.39;105165;1258;65545;-60
2023/12/19 09:17:35;;;;;;;6.20;5.70;;;;;;;5.79;100.00;102806.86;105854;1258;72832;-59
2023/12/19 09:20:07;;;;;;;5.40;4.80;;;;;;;5.78;100.00;102807.40;104402;1257;64416;-59
2023/12/19 09:22:35;;;;;;;5.60;5.10;;;;;;;5.78;100.00;102819.33;104486;1257;60586;-59
2023/12/19 09:25:04;;;;;;;5.70;5.30;;;;;;;5.78;100.00;102809.71;105489;1256;73121;-59
2023/12/19 09:27:31;;;;;;;6.00;5.40;;;;;;;5.79;100.00;102817.20;104794;1256;67433;-60
2023/12/19 09:29:59;;;;;;;7.00;5.80;;;;;;;5.81;100.00;102809.57;104412;1262;73194;-59
2023/12/19 09:32:26;;;;;;;7.20;6.20;;;;;;;5.82;100.00;102802.29;105987;1257;60422;-59
2023/12/19 09:34:54;;;;;;;8.50;7.80;;;;;;;5.83;100.00;102810.52;104632;1262;60449;-58
2023/12/19 09:37:26;;;;;;;9.30;7.30;;;;;;;5.84;100.00;102814.48;104659;1256;74053;-58
2023/12/19 09:39:53;;;;;;;7.50;6.60;;;;;;;5.84;100.00;102823.55;104662;1262;66226;-56
2023/12/19 09:42:23;;;;;;;6.90;6.20;;;;;;;5.83;100.00;102818.89;105132;1262;73985;-58
2023/12/19 09:44:54;;;;;;;7.30;6.60;;;;;;;5.82;100.00;102808.90;104531;1259;63099;-59
2023/12/19 09:47:25;;;;;;;7.40;6.00;;;;;;;5.83;100.00;102809.27;104625;1256;60555;-57
2023/12/19 09:49:54;;;;;;;8.50;7.20;;;;;;;5.83;100.00;102804.80;104702;1262;72543;-58
2023/12/19 09:52:27;;;;;;;7.00;6.30;;;;;;;5.84;100.00;102799.48;106698;1257;65984;-56
2023/12/19 09:54:54;;;;;;;8.30;6.90;;;;;;;5.88;100.00;102805.27;105832;1260;74142;-59
2023/12/19 09:57:23;;;;;;;7.30;6.40;;;;;;;5.90;100.00;102789.30;108675;1256;58874;-61
2023/12/19 09:59:50;;;;;;;8.90;6.90;;;;;;;5.92;100.00;102783.11;108690;1256;58892;-61
2023/12/19 10:02:26;;;;;;;8.60;7.60;;;;;;;5.92;100.00;102789.69;105123;1262;74078;-57
2023/12/19 10:04:55;;;;;;;9.00;7.50;;;;;;;5.90;100.00;102783.23;106405;1256;65799;-57
2023/12/19 10:07:23;;;;;;;6.90;6.30;;;;;;;5.88;100.00;102767.67;105417;1259;71484;-59
2023/12/19 10:09:57;;;;;;;7.10;6.30;;;;;;;5.85;100.00;102750.50;104484;1262;60487;-60
2023/12/19 10:12:27;;;;;;;5.60;5.10;;;;;;;5.84;100.00;102742.80;108671;1256;58997;-60
2023/12/19 10:15:13;;;;;;;5.10;4.70;;;;;;;5.84;100.00;102753.70;108694;1256;73956;-60
2023/12/19 10:18:07;;;;;;;5.30;4.70;;;;;;;5.86;100.00;102750.70;108702;1256;66975;-60
2023/12/19 10:20:37;;;;;;;4.90;4.50;;;;;;;5.91;100.00;102775.77;105572;1262;72723;-58
2023/12/19 10:23:05;;;;;;;6.60;5.60;;;;;;;5.96;100.00;102759.64;108453;1256;59905;-60
2023/12/19 10:25:33;;;;;;;5.80;5.30;;;;;;;6.01;100.00;102753.33;108646;1256;60146;-60
2023/12/19 10:28:12;;;;;;;6.70;6.00;;;;;;;6.05;100.00;102762.83;106113;1256;73873;-56
2023/12/19 10:30:40;;;;;;;7.90;6.50;;;;;;;6.06;100.00;102737.38;104538;1262;67030;-56
2023/12/19 10:33:08;;;;;;;5.50;5.00;;;;;;;6.07;100.00;102723.13;104593;1261;71722;-59
2023/12/19 10:35:39;;;;;;;6.60;5.00;;;;;;;6.06;100.00;102719.19;104468;1258;61583;-58
2023/12/19 10:38:07;;;;;;;4.90;4.40;;;;;;;6.06;100.00;102732.02;104621;1261;60658;-57
2023/12/19 10:40:37;;;;;;;5.70;4.90;;;;;;;6.06;100.00;102720.43;104571;1262;73087;-58
2023/12/19 10:43:05;;;;;;;5.50;4.80;;;;;;;6.09;100.00;102720.66;104352;1262;65938;-59
2023/12/19 10:45:33;;;;;;;6.90;6.20;;;;;;;6.12;100.00;102714.47;104514;1258;71418;-58
2023/12/19 10:48:01;;;;;;;9.20;6.70;;;;;;;6.12;100.00;102719.98;104491;1262;61109;-59
2023/12/19 10:53:07;;;;;;;7.80;7.00;;;;;;;6.09;100.00;102588.55;101693;1294;600781;-57
2023/12/19 10:55:44;;;;;;;8.00;7.00;;;;;;;6.09;100.00;102863.11;103583;1274;61757;-58
2023/12/19 10:58:13;;;;;;;8.30;7.00;;;;;;;6.12;100.00;102874.04;105501;1270;60170;-57
2023/12/19 11:00:41;;;;;;;7.40;5.90;;;;;;;6.16;100.00;102871.27;104333;1269;72799;-59
2023/12/19 11:03:37;;;;;;;7.10;6.30;;;;;;;6.21;100.00;102864.77;104098;1273;65789;-56
2023/12/19 11:06:05;;;;;;;7.50;6.20;;;;;;;6.26;100.00;102900.52;103683;1272;187941;-59
2023/12/19 11:08:33;;;;;;;8.70;6.30;;;;;;;6.30;100.00;102861.55;105659;1266;59237;-58
2023/12/19 11:11:10;;;;;;;9.70;8.70;;;;;;;6.34;100.00;102859.48;103911;1266;60287;-58
2023/12/19 11:13:37;;;;;;;12.80;8.30;;;;;;;6.35;100.00;102868.96;104114;1272;71266;-57
2023/12/19 11:16:16;;;;;;;10.50;9.40;;;;;;;6.36;100.00;102852.56;103867;1266;67867;-58
2023/12/19 11:19:23;;;;;;;12.40;8.70;;;;;;;6.37;100.00;102867.23;104056;1274;72713;-58
2023/12/19 11:22:10;;;;;;;13.80;8.10;;;;;;;6.38;100.00;102898.27;104692;1270;61766;-56
2023/12/19 11:25:10;;;;;;;11.40;8.40;;;;;;;6.40;100.00;102881.89;104037;1271;59657;-56
2023/12/19 11:27:55;;;;;;;11.10;7.80;;;;;;;6.42;100.00;102908.16;103900;1265;71879;-58